Time;durP1;ratioP1;P1;durP2;ratioP2;P2;SDS_P1;SDS_P2;PMS_P1;PMS_P2;Temp;Humidity;BMP_temperature;BMP_pressure;BME280_temperature;BME280_humidity;BME280_pressure;Samples;Min_cycle;Max_cycle;Signal;HPM_P1;HPM_P2
2021/01/07 00:00:41;;;;;;;16.20;10.67;;;;;;;;;;4991639;28;20434;-70
2021/01/07 00:03:07;;;;;;;17.00;10.90;;;;;;;;;;4973804;28;20463;-71
2021/01/07 00:05:33;;;;;;;15.88;11.90;;;;;;;;;;4986455;28;20446;-70
2021/01/07 00:07:59;;;;;;;18.20;12.50;;;;;;;;;;4971484;28;20181;-71
2021/01/07 00:10:25;;;;;;;17.08;12.15;;;;;;;;;;4972290;28;20455;-72
2021/01/07 00:12:51;;;;;;;19.83;12.73;;;;;;;;;;4986230;28;20255;-71
2021/01/07 00:15:16;;;;;;;20.58;13.18;;;;;;;;;;4971848;28;21014;-71
2021/01/07 00:17:42;;;;;;;22.70;12.80;;;;;;;;;;4989243;28;20262;-71
2021/01/07 00:20:12;;;;;;;23.30;13.53;;;;;;;;;;4978667;28;20509;-72
2021/01/07 00:22:38;;;;;;;18.60;12.18;;;;;;;;;;4976329;28;20424;-72
2021/01/07 00:25:05;;;;;;;17.80;12.02;;;;;;;;;;4971900;28;20177;-71
2021/01/07 00:27:31;;;;;;;22.13;11.48;;;;;;;;;;4984694;28;20505;-71
2021/01/07 00:29:57;;;;;;;19.38;13.35;;;;;;;;;;4971838;28;20554;-70
2021/01/07 00:32:24;;;;;;;19.97;13.30;;;;;;;;;;4985842;28;20176;-71
2021/01/07 00:34:50;;;;;;;21.42;13.35;;;;;;;;;;4979306;28;20420;-71
2021/01/07 00:37:15;;;;;;;19.77;12.40;;;;;;;;;;4972951;28;20563;-70
2021/01/07 00:39:41;;;;;;;21.87;14.27;;;;;;;;;;4994635;28;20179;-71
2021/01/07 00:42:07;;;;;;;21.92;11.85;;;;;;;;;;4995156;28;20518;-70
2021/01/07 00:44:33;;;;;;;24.13;13.68;;;;;;;;;;4983702;28;20293;-71
2021/01/07 00:46:59;;;;;;;22.40;14.65;;;;;;;;;;4974599;28;20184;-70
2021/01/07 00:49:25;;;;;;;20.70;13.10;;;;;;;;;;4981436;28;20183;-70
2021/01/07 00:51:51;;;;;;;21.67;13.33;;;;;;;;;;4987733;28;20806;-72
2021/01/07 00:54:22;;;;;;;20.73;13.13;;;;;;;;;;4979562;28;21222;-72
2021/01/07 00:56:48;;;;;;;20.52;13.68;;;;;;;;;;4995075;28;20448;-72
2021/01/07 00:59:14;;;;;;;22.83;14.85;;;;;;;;;;4982530;28;20564;-71
2021/01/07 01:01:44;;;;;;;21.67;13.50;;;;;;;;;;4993899;28;20204;-73
2021/01/07 01:04:10;;;;;;;21.58;13.60;;;;;;;;;;4994063;28;20477;-73
2021/01/07 01:06:36;;;;;;;19.05;13.60;;;;;;;;;;4994693;28;20231;-73
2021/01/07 01:09:03;;;;;;;21.45;13.63;;;;;;;;;;4975216;28;20184;-74
2021/01/07 01:11:30;;;;;;;21.92;15.07;;;;;;;;;;4975427;28;20196;-74
2021/01/07 01:13:55;;;;;;;22.88;14.82;;;;;;;;;;4979221;28;20687;-73
2021/01/07 01:16:26;;;;;;;27.47;17.20;;;;;;;;;;4982388;28;20262;-74
2021/01/07 01:18:52;;;;;;;22.15;13.98;;;;;;;;;;4994637;28;20418;-73
2021/01/07 01:21:18;;;;;;;21.73;14.80;;;;;;;;;;4988124;28;20196;-73
2021/01/07 01:23:44;;;;;;;22.37;14.80;;;;;;;;;;4974727;28;20500;-73
2021/01/07 01:26:10;;;;;;;23.07;16.47;;;;;;;;;;4979112;28;20430;-74
2021/01/07 01:28:36;;;;;;;24.63;14.80;;;;;;;;;;4981574;28;20438;-75
2021/01/07 01:31:02;;;;;;;22.27;15.23;;;;;;;;;;4982111;28;20938;-74
2021/01/07 01:33:28;;;;;;;25.30;16.57;;;;;;;;;;4994303;28;20219;-73
2021/01/07 01:35:54;;;;;;;25.13;15.90;;;;;;;;;;4992463;28;20435;-74
2021/01/07 01:38:19;;;;;;;27.83;16.50;;;;;;;;;;4985357;28;20561;-73
2021/01/07 01:40:45;;;;;;;22.87;15.90;;;;;;;;;;4975784;28;20466;-73
2021/01/07 01:43:11;;;;;;;24.87;15.70;;;;;;;;;;4974084;28;20463;-73
2021/01/07 01:45:37;;;;;;;24.98;17.83;;;;;;;;;;4977262;28;20427;-72
2021/01/07 01:48:03;;;;;;;28.33;17.90;;;;;;;;;;4976721;28;20184;-73
2021/01/07 01:50:29;;;;;;;23.27;15.80;;;;;;;;;;4974753;28;20795;-72
2021/01/07 01:52:55;;;;;;;30.57;17.70;;;;;;;;;;4993761;28;20175;-72
2021/01/07 01:55:21;;;;;;;28.50;18.92;;;;;;;;;;4993651;28;20965;-72
2021/01/07 01:57:48;;;;;;;25.85;16.90;;;;;;;;;;4973530;28;20184;-72
2021/01/07 02:00:14;;;;;;;20.27;14.85;;;;;;;;;;4974158;28;20211;-73
2021/01/07 02:02:40;;;;;;;22.52;16.23;;;;;;;;;;4991899;28;20187;-72
2021/01/07 02:05:06;;;;;;;22.67;14.90;;;;;;;;;;4993561;28;20264;-72
2021/01/07 02:07:33;;;;;;;28.95;16.50;;;;;;;;;;4992207;28;20477;-72
2021/01/07 02:10:01;;;;;;;23.60;16.27;;;;;;;;;;4993576;28;20234;-72
2021/01/07 02:12:27;;;;;;;29.42;16.95;;;;;;;;;;4976942;28;20195;-72
2021/01/07 02:14:54;;;;;;;22.98;16.73;;;;;;;;;;4973929;28;20176;-73
2021/01/07 02:17:19;;;;;;;28.73;18.10;;;;;;;;;;4973782;28;20180;-73
2021/01/07 02:19:45;;;;;;;23.73;17.37;;;;;;;;;;4973842;28;20698;-72
2021/01/07 02:22:14;;;;;;;22.77;15.70;;;;;;;;;;4973901;28;20801;-72
2021/01/07 02:24:40;;;;;;;22.33;17.65;;;;;;;;;;4982672;28;20466;-72
2021/01/07 02:27:07;;;;;;;27.73;18.30;;;;;;;;;;4985809;28;20246;-73
2021/01/07 02:29:33;;;;;;;26.17;17.20;;;;;;;;;;4975037;28;20185;-73
2021/01/07 02:31:59;;;;;;;25.10;17.02;;;;;;;;;;4973738;28;20196;-73
2021/01/07 02:34:26;;;;;;;28.65;18.70;;;;;;;;;;4977430;28;20206;-72
2021/01/07 02:36:52;;;;;;;21.95;16.35;;;;;;;;;;4973732;28;20207;-73
2021/01/07 02:39:18;;;;;;;21.83;16.27;;;;;;;;;;4975005;28;20212;-72
2021/01/07 02:41:50;;;;;;;24.63;16.97;;;;;;;;;;4973273;28;20298;-72
2021/01/07 02:44:16;;;;;;;26.15;19.05;;;;;;;;;;4977641;28;20842;-72
2021/01/07 02:46:43;;;;;;;28.27;17.13;;;;;;;;;;4987261;28;20195;-73
2021/01/07 02:49:09;;;;;;;30.33;17.90;;;;;;;;;;4976161;28;20524;-73
2021/01/07 02:51:35;;;;;;;26.33;16.53;;;;;;;;;;4972643;28;20243;-72
2021/01/07 02:54:02;;;;;;;22.03;14.73;;;;;;;;;;4973103;28;20423;-72
2021/01/07 02:56:29;;;;;;;19.50;14.30;;;;;;;;;;4989054;28;20431;-72
2021/01/07 02:58:55;;;;;;;23.55;16.33;;;;;;;;;;4973984;28;20184;-72
2021/01/07 03:01:21;;;;;;;21.47;16.20;;;;;;;;;;4979386;28;20211;-71
2021/01/07 03:03:47;;;;;;;23.37;15.50;;;;;;;;;;4972121;28;20471;-72
2021/01/07 03:06:13;;;;;;;28.37;17.60;;;;;;;;;;4983022;28;20432;-72
2021/01/07 03:08:38;;;;;;;22.97;16.43;;;;;;;;;;4992584;28;20523;-72
2021/01/07 03:11:04;;;;;;;19.10;13.60;;;;;;;;;;4974436;28;20450;-72
2021/01/07 03:13:30;;;;;;;19.03;14.83;;;;;;;;;;4972750;28;20458;-72
2021/01/07 03:15:56;;;;;;;30.20;17.07;;;;;;;;;;4986895;28;20431;-72
2021/01/07 03:18:22;;;;;;;26.53;15.60;;;;;;;;;;4981167;28;20439;-73
2021/01/07 03:20:48;;;;;;;24.30;16.83;;;;;;;;;;4973050;28;20505;-72
2021/01/07 03:23:14;;;;;;;25.98;15.85;;;;;;;;;;4982243;28;20206;-72
2021/01/07 03:25:40;;;;;;;27.17;17.37;;;;;;;;;;4988437;28;20180;-73
2021/01/07 03:28:06;;;;;;;28.40;19.70;;;;;;;;;;4971993;28;20427;-72
2021/01/07 03:30:32;;;;;;;34.27;20.73;;;;;;;;;;4983763;28;20445;-72
2021/01/07 03:32:58;;;;;;;31.83;18.47;;;;;;;;;;4979356;28;20419;-72
2021/01/07 03:35:24;;;;;;;30.73;18.45;;;;;;;;;;4974112;28;20478;-73
2021/01/07 03:37:50;;;;;;;27.60;19.07;;;;;;;;;;4973834;28;20192;-72
2021/01/07 03:40:16;;;;;;;26.90;16.90;;;;;;;;;;4980365;28;20463;-72
2021/01/07 03:42:42;;;;;;;28.27;17.33;;;;;;;;;;4976724;28;20435;-72
2021/01/07 03:45:08;;;;;;;31.95;16.63;;;;;;;;;;4982013;28;20431;-72
2021/01/07 03:47:34;;;;;;;27.52;16.98;;;;;;;;;;4992044;28;20250;-72
2021/01/07 03:50:00;;;;;;;23.33;16.30;;;;;;;;;;4983119;28;20212;-73
2021/01/07 03:52:26;;;;;;;25.40;15.00;;;;;;;;;;4972583;28;20408;-73
2021/01/07 03:54:52;;;;;;;22.50;16.20;;;;;;;;;;4989957;28;20517;-72
2021/01/07 03:57:18;;;;;;;31.92;17.48;;;;;;;;;;4991466;28;20825;-72
2021/01/07 03:59:44;;;;;;;28.63;16.83;;;;;;;;;;4988457;28;20187;-72
2021/01/07 04:02:10;;;;;;;29.80;16.40;;;;;;;;;;4977406;28;20572;-72
2021/01/07 04:04:36;;;;;;;24.43;15.10;;;;;;;;;;4984401;28;20970;-72
2021/01/07 04:07:01;;;;;;;30.07;15.63;;;;;;;;;;4972618;28;20951;-73
2021/01/07 04:09:27;;;;;;;25.60;16.97;;;;;;;;;;4984701;28;20806;-72
2021/01/07 04:11:53;;;;;;;31.37;13.77;;;;;;;;;;4990865;28;20510;-72
2021/01/07 04:14:19;;;;;;;26.93;16.60;;;;;;;;;;4985761;28;20638;-72
2021/01/07 04:16:45;;;;;;;21.90;14.27;;;;;;;;;;4986300;28;20419;-73
2021/01/07 04:19:11;;;;;;;28.48;15.50;;;;;;;;;;4979530;28;20445;-73
2021/01/07 04:21:45;;;;;;;24.00;16.40;;;;;;;;;;4976747;28;20195;-73
2021/01/07 04:24:11;;;;;;;29.83;17.27;;;;;;;;;;4991292;28;20470;-72
2021/01/07 04:26:38;;;;;;;24.08;16.85;;;;;;;;;;4986154;28;20176;-72
2021/01/07 04:29:04;;;;;;;22.95;16.20;;;;;;;;;;4971597;28;20191;-72
2021/01/07 04:31:30;;;;;;;26.35;16.48;;;;;;;;;;4974917;28;20671;-73
2021/01/07 04:33:56;;;;;;;31.00;17.47;;;;;;;;;;4989566;28;20180;-72
2021/01/07 04:36:22;;;;;;;31.80;19.60;;;;;;;;;;4971490;28;20435;-72
2021/01/07 04:38:48;;;;;;;34.13;20.00;;;;;;;;;;4979486;28;20426;-72
2021/01/07 04:41:14;;;;;;;27.00;17.07;;;;;;;;;;4991057;28;20458;-72
2021/01/07 04:43:40;;;;;;;30.93;20.50;;;;;;;;;;4984463;28;20561;-73
2021/01/07 04:46:06;;;;;;;29.60;17.20;;;;;;;;;;4990970;28;20406;-72
2021/01/07 04:48:34;;;;;;;34.17;18.23;;;;;;;;;;4980265;28;20435;-72
2021/01/07 04:51:00;;;;;;;27.27;17.20;;;;;;;;;;4980840;28;20200;-73
2021/01/07 04:53:26;;;;;;;37.33;16.30;;;;;;;;;;4972326;28;20242;-72
2021/01/07 04:55:52;;;;;;;31.95;16.55;;;;;;;;;;4990131;28;20418;-72
2021/01/07 04:58:18;;;;;;;30.73;17.92;;;;;;;;;;4982223;28;20246;-72
2021/01/07 05:00:44;;;;;;;26.57;16.97;;;;;;;;;;4952184;28;20291;-73
2021/01/07 05:03:10;;;;;;;34.03;17.40;;;;;;;;;;4980667;28;20458;-73
2021/01/07 05:05:36;;;;;;;28.10;18.20;;;;;;;;;;4979885;28;20191;-72
2021/01/07 05:08:05;;;;;;;30.13;18.20;;;;;;;;;;4972913;28;20514;-73
2021/01/07 05:10:31;;;;;;;25.92;17.70;;;;;;;;;;4971272;28;20475;-72
2021/01/07 05:12:57;;;;;;;25.17;17.80;;;;;;;;;;4978782;28;20262;-71
2021/01/07 05:15:23;;;;;;;28.90;18.43;;;;;;;;;;4971331;28;20180;-72
2021/01/07 05:17:49;;;;;;;30.20;17.20;;;;;;;;;;4981771;28;20430;-72
2021/01/07 05:20:15;;;;;;;26.50;16.93;;;;;;;;;;4979768;28;20213;-72
2021/01/07 05:22:44;;;;;;;27.30;17.67;;;;;;;;;;4979995;28;20426;-73
2021/01/07 05:25:20;;;;;;;25.30;17.50;;;;;;;;;;4992716;28;20176;-73
2021/01/07 05:27:46;;;;;;;26.45;16.38;;;;;;;;;;4979386;28;20180;-72
2021/01/07 05:30:13;;;;;;;25.60;16.67;;;;;;;;;;4974494;28;20618;-72
2021/01/07 05:32:41;;;;;;;31.08;19.50;;;;;;;;;;4974434;28;20445;-73
2021/01/07 05:35:08;;;;;;;25.42;18.95;;;;;;;;;;4974501;28;20212;-73
2021/01/07 05:37:36;;;;;;;33.55;19.48;;;;;;;;;;4981909;28;20423;-73
2021/01/07 05:40:03;;;;;;;30.08;18.13;;;;;;;;;;4994047;28;20250;-72
2021/01/07 05:42:36;;;;;;;30.58;17.77;;;;;;;;;;4986745;28;20211;-73
2021/01/07 05:45:04;;;;;;;34.22;19.33;;;;;;;;;;4973870;28;20267;-72
2021/01/07 05:47:30;;;;;;;26.55;17.98;;;;;;;;;;4980864;28;20230;-72
2021/01/07 05:49:57;;;;;;;31.70;20.65;;;;;;;;;;4975559;28;21002;-76
2021/01/07 05:52:28;;;;;;;32.17;21.02;;;;;;;;;;4979292;28;20176;-76
2021/01/07 05:54:54;;;;;;;29.15;16.30;;;;;;;;;;4984656;28;20196;-75
2021/01/07 05:57:22;;;;;;;25.95;17.83;;;;;;;;;;4977473;28;20191;-76
2021/01/07 05:59:48;;;;;;;27.13;17.27;;;;;;;;;;4974478;28;20726;-76
2021/01/07 06:02:15;;;;;;;28.90;17.80;;;;;;;;;;4976353;28;20194;-76
2021/01/07 06:04:43;;;;;;;28.65;17.65;;;;;;;;;;4974462;28;20287;-76
2021/01/07 06:07:10;;;;;;;25.58;18.42;;;;;;;;;;4991233;28;20603;-76
2021/01/07 06:09:37;;;;;;;28.25;18.52;;;;;;;;;;4993826;28;20211;-75
2021/01/07 06:12:04;;;;;;;26.77;17.17;;;;;;;;;;4977882;28;20204;-76
2021/01/07 06:14:30;;;;;;;30.83;17.70;;;;;;;;;;4990806;28;20209;-76
2021/01/07 06:16:59;;;;;;;26.75;17.05;;;;;;;;;;4982786;28;20243;-76
2021/01/07 06:19:32;;;;;;;29.08;17.63;;;;;;;;;;4977407;28;20621;-76
2021/01/07 06:21:58;;;;;;;31.02;17.63;;;;;;;;;;4975381;28;20726;-76
2021/01/07 06:24:31;;;;;;;33.95;20.52;;;;;;;;;;4975754;28;20196;-76
2021/01/07 06:26:56;;;;;;;29.00;17.15;;;;;;;;;;4975712;28;20640;-76
2021/01/07 06:29:22;;;;;;;28.52;17.58;;;;;;;;;;4972801;28;20188;-76
2021/01/07 06:31:56;;;;;;;32.07;21.07;;;;;;;;;;4974454;28;20200;-76
2021/01/07 06:34:38;;;;;;;42.45;21.95;;;;;;;;;;4973148;28;20423;-76
2021/01/07 06:37:04;;;;;;;36.65;21.17;;;;;;;;;;4954350;28;20461;-76
2021/01/07 06:39:30;;;;;;;37.13;20.98;;;;;;;;;;4954558;28;20184;-76
2021/01/07 06:41:59;;;;;;;39.83;22.73;;;;;;;;;;4958756;28;20246;-76
2021/01/07 06:44:26;;;;;;;36.58;20.17;;;;;;;;;;4971924;28;20482;-76
2021/01/07 06:46:52;;;;;;;39.90;20.17;;;;;;;;;;4973782;28;20594;-76
2021/01/07 06:49:18;;;;;;;37.30;21.80;;;;;;;;;;4971918;28;20259;-76
2021/01/07 06:51:56;;;;;;;35.40;22.10;;;;;;;;;;4972902;28;20447;-76
2021/01/07 06:54:24;;;;;;;36.70;22.25;;;;;;;;;;4971527;28;20543;-76
2021/01/07 06:56:53;;;;;;;39.70;21.45;;;;;;;;;;4972889;28;20172;-76
2021/01/07 06:59:21;;;;;;;44.60;21.75;;;;;;;;;;4972119;28;20650;-76
2021/01/07 07:01:48;;;;;;;42.55;23.73;;;;;;;;;;4973326;28;20200;-76
2021/01/07 07:04:24;;;;;;;42.47;24.02;;;;;;;;;;4971849;28;20200;-76
2021/01/07 07:06:56;;;;;;;38.50;23.30;;;;;;;;;;4972284;28;20319;-76
2021/01/07 07:09:24;;;;;;;36.25;19.83;;;;;;;;;;4971170;28;20196;-76
2021/01/07 07:11:59;;;;;;;38.20;21.08;;;;;;;;;;4973197;28;20270;-75
2021/01/07 07:14:25;;;;;;;33.70;18.55;;;;;;;;;;4972348;28;20267;-76
2021/01/07 07:16:51;;;;;;;32.92;20.48;;;;;;;;;;4973183;28;20176;-76
2021/01/07 07:19:24;;;;;;;33.80;17.67;;;;;;;;;;4972759;28;20176;-76
2021/01/07 07:22:16;;;;;;;32.25;19.13;;;;;;;;;;4972820;28;20204;-76
2021/01/07 07:24:48;;;;;;;28.50;18.48;;;;;;;;;;4969720;28;20298;-76
2021/01/07 07:27:14;;;;;;;30.75;17.10;;;;;;;;;;4972911;28;20169;-76
2021/01/07 07:29:45;;;;;;;28.95;17.90;;;;;;;;;;4972596;28;20188;-76
2021/01/07 07:32:24;;;;;;;29.00;17.67;;;;;;;;;;4972711;28;20180;-76
2021/01/07 07:34:51;;;;;;;26.15;16.27;;;;;;;;;;4972635;28;20530;-76
2021/01/07 07:37:19;;;;;;;30.35;17.70;;;;;;;;;;4972710;28;20219;-76
2021/01/07 07:39:47;;;;;;;30.80;17.08;;;;;;;;;;4971913;28;20541;-76
2021/01/07 07:42:14;;;;;;;27.17;17.42;;;;;;;;;;4971749;28;20192;-76
2021/01/07 07:44:40;;;;;;;27.83;16.80;;;;;;;;;;4972040;28;20216;-76
2021/01/07 07:47:06;;;;;;;28.67;15.70;;;;;;;;;;4972130;28;20180;-76
2021/01/07 07:49:32;;;;;;;27.50;14.70;;;;;;;;;;4972064;28;20239;-76
2021/01/07 07:51:58;;;;;;;26.63;16.50;;;;;;;;;;4972063;28;20255;-76
2021/01/07 07:54:24;;;;;;;30.67;17.13;;;;;;;;;;4971890;28;20184;-76
2021/01/07 07:56:57;;;;;;;25.50;17.30;;;;;;;;;;4971872;28;20910;-76
2021/01/07 07:59:23;;;;;;;29.08;17.52;;;;;;;;;;4971369;28;20433;-76
2021/01/07 08:01:49;;;;;;;26.13;15.77;;;;;;;;;;4972291;28;20200;-76
2021/01/07 08:04:17;;;;;;;28.05;16.88;;;;;;;;;;4972017;28;20550;-76
2021/01/07 08:06:43;;;;;;;32.60;18.02;;;;;;;;;;4972567;28;20172;-77
2021/01/07 08:09:10;;;;;;;27.75;16.75;;;;;;;;;;4972119;28;20179;-76
2021/01/07 08:11:45;;;;;;;35.58;20.35;;;;;;;;;;4971838;28;20235;-76
2021/01/07 08:14:12;;;;;;;28.23;16.80;;;;;;;;;;4971299;28;20188;-76
2021/01/07 08:16:39;;;;;;;32.97;19.90;;;;;;;;;;4972061;28;20199;-76
2021/01/07 08:19:34;;;;;;;34.90;19.75;;;;;;;;;;4972009;28;20657;-76
2021/01/07 08:22:00;;;;;;;40.55;20.40;;;;;;;;;;4971336;28;20211;-76
2021/01/07 08:24:26;;;;;;;34.13;19.80;;;;;;;;;;4971353;28;20207;-76
2021/01/07 08:27:11;;;;;;;30.08;20.35;;;;;;;;;;4972101;28;20168;-76
2021/01/07 08:29:39;;;;;;;29.88;19.67;;;;;;;;;;4971045;28;20632;-76
2021/01/07 08:32:06;;;;;;;30.27;20.42;;;;;;;;;;4964810;28;20205;-76
2021/01/07 08:34:32;;;;;;;39.67;21.13;;;;;;;;;;4966220;28;20176;-76
2021/01/07 08:37:27;;;;;;;39.63;20.77;;;;;;;;;;4971669;28;20242;-76
2021/01/07 08:39:53;;;;;;;37.78;19.15;;;;;;;;;;4970442;28;20254;-76
2021/01/07 08:42:19;;;;;;;31.57;19.07;;;;;;;;;;4970445;28;20191;-77
2021/01/07 08:44:46;;;;;;;37.07;21.37;;;;;;;;;;4969938;28;20513;-76
2021/01/07 08:47:22;;;;;;;39.05;20.40;;;;;;;;;;4971472;28;20420;-76
2021/01/07 08:50:00;;;;;;;37.63;21.45;;;;;;;;;;4971691;28;20176;-76
2021/01/07 08:52:26;;;;;;;36.50;21.17;;;;;;;;;;4971906;28;20630;-76
2021/01/07 08:54:53;;;;;;;32.57;21.07;;;;;;;;;;4971366;28;20211;-76
2021/01/07 08:57:19;;;;;;;35.35;19.42;;;;;;;;;;4971656;28;20435;-76
2021/01/07 08:59:45;;;;;;;31.60;19.60;;;;;;;;;;4978311;28;20313;-77
2021/01/07 09:02:11;;;;;;;32.17;19.65;;;;;;;;;;4978773;28;20210;-75
2021/01/07 09:04:38;;;;;;;32.20;20.10;;;;;;;;;;4994693;28;20767;-76
2021/01/07 09:07:06;;;;;;;37.00;20.95;;;;;;;;;;4979118;28;20415;-76
2021/01/07 09:09:41;;;;;;;33.97;20.67;;;;;;;;;;4974952;28;20628;-75
2021/01/07 09:12:11;;;;;;;48.20;18.58;;;;;;;;;;4975470;28;20539;-75
2021/01/07 09:14:44;;;;;;;35.30;19.05;;;;;;;;;;4974937;28;20246;-75
2021/01/07 09:17:10;;;;;;;32.45;19.20;;;;;;;;;;4975180;28;20185;-75
2021/01/07 09:19:36;;;;;;;32.97;20.50;;;;;;;;;;4974638;28;20184;-75
2021/01/07 09:22:02;;;;;;;28.00;17.33;;;;;;;;;;4974983;28;20529;-75
2021/01/07 09:24:38;;;;;;;24.63;13.90;;;;;;;;;;4974676;28;20459;-75
2021/01/07 09:27:07;;;;;;;25.50;16.65;;;;;;;;;;4975084;28;20184;-75
2021/01/07 09:29:33;;;;;;;31.15;17.08;;;;;;;;;;4974891;28;20180;-75
2021/01/07 09:31:58;;;;;;;25.43;14.90;;;;;;;;;;4974325;28;20204;-75
2021/01/07 09:34:24;;;;;;;31.48;16.83;;;;;;;;;;4974429;28;20439;-75
2021/01/07 09:36:50;;;;;;;26.97;16.10;;;;;;;;;;4974795;28;20184;-77
2021/01/07 09:39:16;;;;;;;26.80;15.73;;;;;;;;;;4974939;28;20851;-75
2021/01/07 09:41:42;;;;;;;20.25;13.48;;;;;;;;;;5008957;23;20485;-75
2021/01/07 09:44:08;;;;;;;27.52;16.73;;;;;;;;;;4993642;28;20258;-76
2021/01/07 09:46:34;;;;;;;21.03;14.43;;;;;;;;;;4992940;28;20179;-76
2021/01/07 09:49:00;;;;;;;23.80;14.80;;;;;;;;;;4993524;28;20484;-75
2021/01/07 09:51:26;;;;;;;24.80;13.97;;;;;;;;;;4993805;28;20438;-76
2021/01/07 09:53:52;;;;;;;23.50;13.37;;;;;;;;;;4994055;28;20484;-75
2021/01/07 09:56:18;;;;;;;20.40;13.30;;;;;;;;;;4994007;28;20425;-76
2021/01/07 09:58:44;;;;;;;21.60;12.40;;;;;;;;;;4993862;28;21008;-76
2021/01/07 10:01:10;;;;;;;22.42;15.10;;;;;;;;;;4994132;28;20441;-77
2021/01/07 10:03:36;;;;;;;24.37;14.33;;;;;;;;;;4993694;28;20678;-77
2021/01/07 10:06:05;;;;;;;18.20;12.00;;;;;;;;;;4987896;28;20439;-77
2021/01/07 10:08:31;;;;;;;18.58;12.00;;;;;;;;;;4982263;28;20943;-77
2021/01/07 10:10:57;;;;;;;17.83;12.50;;;;;;;;;;4993024;28;20701;-77
2021/01/07 10:13:23;;;;;;;21.00;12.93;;;;;;;;;;4993227;28;20187;-76
2021/01/07 10:15:49;;;;;;;19.93;11.57;;;;;;;;;;4990102;28;20187;-76
2021/01/07 10:18:15;;;;;;;16.50;11.23;;;;;;;;;;4991753;28;20439;-76
2021/01/07 10:20:41;;;;;;;18.30;12.33;;;;;;;;;;4991663;28;20446;-76
2021/01/07 10:23:07;;;;;;;19.30;11.50;;;;;;;;;;4993404;28;20554;-76
2021/01/07 10:25:34;;;;;;;16.33;11.70;;;;;;;;;;4991602;28;20849;-76
2021/01/07 10:28:00;;;;;;;21.25;11.65;;;;;;;;;;4992819;28;20188;-76
2021/01/07 10:30:26;;;;;;;15.23;9.63;;;;;;;;;;4991972;28;20182;-76
2021/01/07 10:32:54;;;;;;;19.17;12.57;;;;;;;;;;4990439;28;20241;-76
2021/01/07 10:35:21;;;;;;;16.92;12.82;;;;;;;;;;4991724;28;20198;-76
2021/01/07 10:37:49;;;;;;;19.52;10.88;;;;;;;;;;4992527;28;20254;-76
2021/01/07 10:40:15;;;;;;;18.30;11.45;;;;;;;;;;4992731;28;20248;-76
2021/01/07 10:42:42;;;;;;;16.15;11.82;;;;;;;;;;4993410;28;20286;-76
2021/01/07 10:45:10;;;;;;;17.10;11.50;;;;;;;;;;4991816;28;20215;-76
2021/01/07 10:47:37;;;;;;;14.35;10.93;;;;;;;;;;4992509;28;20223;-76
2021/01/07 10:50:04;;;;;;;17.70;11.80;;;;;;;;;;4993134;28;20267;-76
2021/01/07 10:52:42;;;;;;;18.90;12.73;;;;;;;;;;4990163;28;20207;-76
2021/01/07 10:55:11;;;;;;;18.98;11.23;;;;;;;;;;4992582;28;20183;-76
2021/01/07 10:57:49;;;;;;;15.02;12.18;;;;;;;;;;4988062;28;20643;-77
2021/01/07 11:00:15;;;;;;;16.08;11.20;;;;;;;;;;4980939;28;20199;-77
2021/01/07 11:02:47;;;;;;;17.48;12.30;;;;;;;;;;4992611;28;20207;-77
2021/01/07 11:05:14;;;;;;;17.65;12.80;;;;;;;;;;4983669;28;20191;-76
2021/01/07 11:08:03;;;;;;;20.33;13.50;;;;;;;;;;4991856;28;20263;-76
2021/01/07 11:10:30;;;;;;;17.73;12.32;;;;;;;;;;4982782;28;20187;-77
2021/01/07 11:12:58;;;;;;;21.00;13.82;;;;;;;;;;4991472;28;20191;-76
2021/01/07 11:15:30;;;;;;;19.85;13.15;;;;;;;;;;5000016;28;20190;-76
2021/01/07 11:18:03;;;;;;;19.58;12.75;;;;;;;;;;4991664;28;20639;-76
2021/01/07 11:20:30;;;;;;;19.92;12.75;;;;;;;;;;4991896;28;20180;-76
2021/01/07 11:22:56;;;;;;;15.07;11.15;;;;;;;;;;4989348;28;20229;-76
2021/01/07 11:25:22;;;;;;;22.02;12.52;;;;;;;;;;4991509;28;20238;-76
2021/01/07 11:27:50;;;;;;;18.88;13.82;;;;;;;;;;4991534;28;20234;-77
2021/01/07 11:30:17;;;;;;;18.80;12.02;;;;;;;;;;4991781;28;20183;-76
2021/01/07 11:32:44;;;;;;;19.23;11.90;;;;;;;;;;4992144;28;20206;-76
2021/01/07 11:35:10;;;;;;;15.27;11.30;;;;;;;;;;4990213;28;20192;-77
2021/01/07 11:37:42;;;;;;;16.92;12.23;;;;;;;;;;4992356;28;20187;-76
2021/01/07 11:40:09;;;;;;;16.80;13.07;;;;;;;;;;4991224;28;20284;-77
2021/01/07 11:42:35;;;;;;;16.33;11.60;;;;;;;;;;4991182;28;20752;-77
2021/01/07 11:45:04;;;;;;;16.43;11.87;;;;;;;;;;4991841;28;20204;-76
2021/01/07 11:47:41;;;;;;;16.98;11.98;;;;;;;;;;4990970;28;20430;-76
2021/01/07 11:50:07;;;;;;;17.98;11.60;;;;;;;;;;4972769;28;20172;-76
2021/01/07 11:52:36;;;;;;;19.85;11.93;;;;;;;;;;4979493;28;20218;-76
2021/01/07 11:55:02;;;;;;;16.98;11.48;;;;;;;;;;4990830;28;20270;-76
2021/01/07 11:57:32;;;;;;;15.98;12.57;;;;;;;;;;4990615;28;20263;-76
2021/01/07 11:59:58;;;;;;;19.75;11.98;;;;;;;;;;4991393;28;20186;-76
2021/01/07 12:02:24;;;;;;;16.98;12.23;;;;;;;;;;4989041;28;20215;-76
2021/01/07 12:04:51;;;;;;;21.38;12.32;;;;;;;;;;4990700;28;20241;-77
2021/01/07 12:07:28;;;;;;;17.70;13.32;;;;;;;;;;4978103;28;20622;-77
2021/01/07 12:09:57;;;;;;;18.02;11.02;;;;;;;;;;4990581;28;20688;-76
2021/01/07 12:12:24;;;;;;;17.88;12.45;;;;;;;;;;4991482;28;20207;-76
2021/01/07 12:14:51;;;;;;;22.00;12.95;;;;;;;;;;4990678;28;20217;-76
2021/01/07 12:17:17;;;;;;;16.45;11.52;;;;;;;;;;4989352;28;20210;-76
2021/01/07 12:19:43;;;;;;;18.98;12.43;;;;;;;;;;4991565;28;20176;-77
2021/01/07 12:22:14;;;;;;;18.17;13.15;;;;;;;;;;4991431;28;20253;-76
2021/01/07 12:24:42;;;;;;;14.50;11.65;;;;;;;;;;4990572;28;20337;-76
2021/01/07 12:27:09;;;;;;;19.75;12.25;;;;;;;;;;4991417;28;20183;-76
2021/01/07 12:29:37;;;;;;;18.88;12.77;;;;;;;;;;4991355;28;20266;-76
2021/01/07 12:32:08;;;;;;;19.50;13.43;;;;;;;;;;4991380;28;20192;-77
2021/01/07 12:34:37;;;;;;;16.90;12.75;;;;;;;;;;4991017;28;20179;-76
2021/01/07 12:37:17;;;;;;;18.10;12.90;;;;;;;;;;4991450;28;20181;-76
2021/01/07 12:39:51;;;;;;;16.30;11.27;;;;;;;;;;4991366;28;20175;-76
2021/01/07 12:42:21;;;;;;;21.90;12.13;;;;;;;;;;4990018;28;20248;-76
2021/01/07 12:44:48;;;;;;;12.73;10.63;;;;;;;;;;4989888;28;20235;-76
2021/01/07 12:47:15;;;;;;;14.23;10.10;;;;;;;;;;4989639;28;20187;-76
2021/01/07 12:49:43;;;;;;;14.07;9.88;;;;;;;;;;4990909;28;20230;-76
2021/01/07 12:52:09;;;;;;;13.65;10.43;;;;;;;;;;4990682;28;20287;-77
2021/01/07 12:54:36;;;;;;;14.15;9.75;;;;;;;;;;4993599;28;20270;-76
2021/01/07 12:57:16;;;;;;;13.60;9.45;;;;;;;;;;4991763;28;20172;-78
2021/01/07 12:59:45;;;;;;;13.00;10.10;;;;;;;;;;4990377;28;20547;-77
2021/01/07 13:02:29;;;;;;;12.38;8.50;;;;;;;;;;4989055;28;20258;-74
2021/01/07 13:05:03;;;;;;;13.95;9.93;;;;;;;;;;4988796;28;20198;-76
2021/01/07 13:07:30;;;;;;;15.48;9.95;;;;;;;;;;4991215;28;20164;-76
2021/01/07 13:09:57;;;;;;;16.27;11.23;;;;;;;;;;4991008;28;20175;-76
2021/01/07 13:12:23;;;;;;;11.80;9.05;;;;;;;;;;4990728;28;20262;-76
2021/01/07 13:14:50;;;;;;;15.05;9.63;;;;;;;;;;4990506;28;20171;-76
2021/01/07 13:17:17;;;;;;;10.88;8.10;;;;;;;;;;4991059;28;20188;-76
2021/01/07 13:19:43;;;;;;;11.07;8.43;;;;;;;;;;4991222;28;20172;-77
2021/01/07 13:22:10;;;;;;;12.43;9.38;;;;;;;;;;4990891;28;20203;-76
2021/01/07 13:24:36;;;;;;;11.77;9.40;;;;;;;;;;4974488;28;20688;-76
2021/01/07 13:27:02;;;;;;;14.73;10.45;;;;;;;;;;4991200;28;20191;-76
2021/01/07 13:29:29;;;;;;;13.70;10.05;;;;;;;;;;4991004;28;20226;-76
2021/01/07 13:31:55;;;;;;;14.35;9.95;;;;;;;;;;4990984;28;20278;-76
2021/01/07 13:34:21;;;;;;;13.47;10.47;;;;;;;;;;4989723;28;20267;-76
2021/01/07 13:36:47;;;;;;;14.18;9.20;;;;;;;;;;4989856;28;20438;-76
2021/01/07 13:39:13;;;;;;;12.45;9.38;;;;;;;;;;4991692;28;20562;-76
2021/01/07 13:41:41;;;;;;;13.18;9.07;;;;;;;;;;4991447;28;20226;-76
2021/01/07 13:44:09;;;;;;;10.98;8.75;;;;;;;;;;4990887;28;20666;-76
2021/01/07 13:46:38;;;;;;;12.10;9.38;;;;;;;;;;4993713;28;20179;-76
2021/01/07 13:49:06;;;;;;;13.27;8.80;;;;;;;;;;4994396;28;20180;-76
2021/01/07 13:51:32;;;;;;;13.45;8.80;;;;;;;;;;4994152;28;20231;-76
2021/01/07 13:53:58;;;;;;;11.25;9.35;;;;;;;;;;4994045;28;20180;-76
2021/01/07 13:56:27;;;;;;;11.80;9.65;;;;;;;;;;4994170;28;20565;-76
2021/01/07 13:58:54;;;;;;;11.18;8.85;;;;;;;;;;4994240;28;20187;-76
2021/01/07 14:01:20;;;;;;;15.00;9.18;;;;;;;;;;4994008;28;20242;-76
2021/01/07 14:03:46;;;;;;;12.32;9.18;;;;;;;;;;4994090;28;20202;-76
2021/01/07 14:06:12;;;;;;;13.75;9.95;;;;;;;;;;4992340;28;20187;-76
2021/01/07 14:08:49;;;;;;;11.55;8.52;;;;;;;;;;4994067;28;20179;-76
2021/01/07 14:11:18;;;;;;;9.70;8.73;;;;;;;;;;4993934;28;20602;-76
2021/01/07 14:13:44;;;;;;;8.90;8.00;;;;;;;;;;4993593;28;20553;-76
2021/01/07 14:16:11;;;;;;;11.30;9.00;;;;;;;;;;5008737;28;20187;-76
2021/01/07 14:18:37;;;;;;;11.20;10.00;;;;;;;;;;5001199;28;20191;-76
2021/01/07 14:21:03;;;;;;;10.60;8.90;;;;;;;;;;4993533;28;20200;-76